TimeEDT,TemperatureF,Dew PointF,Humidity,Sea Level PressureIn,VisibilityMPH,Wind Direction,Wind SpeedMPH,Gust SpeedMPH,PrecipitationIn,Events,Conditions,WindDirDegrees,DateUTC
12:15 AM,62.6,55.4,77,29.25,10.0,ESE,16.1,33.4,N/A,,Overcast,110,2012-10-30 04:15:00
12:35 AM,62.6,55.4,77,29.25,10.0,ESE,18.4,31.1,N/A,,Mostly Cloudy,110,2012-10-30 04:35:00
12:55 AM,60.8,55.4,82,29.25,10.0,East,12.7,24.2,N/A,,Mostly Cloudy,90,2012-10-30 04:55:00
1:15 AM,60.8,55.4,82,29.26,8.0,ESE,11.5,21.9,0.02,,Overcast,110,2012-10-30 05:15:00
1:35 AM,60.8,55.4,82,29.27,7.0,SSE,11.5,24.2,0.07,,Overcast,150,2012-10-30 05:35:00
1:55 AM,60.8,55.4,82,29.27,8.0,SE,12.7,18.4,0.09,,Overcast,130,2012-10-30 05:55:00
2:15 AM,60.8,55.4,82,29.29,9.0,SE,13.8,23.0,0.01,,Overcast,130,2012-10-30 06:15:00
2:35 AM,59.0,55.4,88,29.30,6.0,SE,17.3,29.9,0.06,,Mostly Cloudy,130,2012-10-30 06:35:00
2:55 AM,59.0,53.6,82,29.30,10.0,SSE,13.8,-,0.06,,Mostly Cloudy,150,2012-10-30 06:55:00
3:55 AM,60.8,53.6,77,29.30,10.0,ESE,18.4,23.0,N/A,,Overcast,120,2012-10-30 07:55:00
4:15 AM,60.8,53.6,77,29.31,10.0,SE,20.7,27.6,N/A,,Mostly Cloudy,130,2012-10-30 08:15:00
4:55 AM,59.0,53.6,82,29.31,10.0,SE,19.6,23.0,0.04,,Overcast,140,2012-10-30 08:55:00
5:35 AM,59.0,53.6,82,29.32,10.0,SSE,16.1,23.0,0.01,,Overcast,150,2012-10-30 09:35:00
5:55 AM,59.0,51.8,77,29.35,10.0,SSE,16.1,23.0,0.01,,Overcast,150,2012-10-30 09:55:00
6:15 AM,59.0,51.8,77,29.36,10.0,South,18.4,28.8,0.02,,Mostly Cloudy,190,2012-10-30 10:15:00
6:35 AM,55.4,51.8,88,29.38,8.0,SSE,17.3,28.8,0.12,,Overcast,160,2012-10-30 10:35:00
6:55 AM,57.2,51.8,82,29.38,10.0,SSE,12.7,17.3,0.12,,Overcast,160,2012-10-30 10:55:00
7:15 AM,57.2,51.8,82,29.39,10.0,SSE,13.8,21.9,N/A,,Overcast,150,2012-10-30 11:15:00
7:35 AM,57.2,51.8,82,29.40,10.0,SE,15.0,25.3,0.01,,Mostly Cloudy,130,2012-10-30 11:35:00
7:55 AM,57.2,51.8,82,29.41,10.0,SE,17.3,21.9,0.01,,Overcast,140,2012-10-30 11:55:00
8:15 AM,57.2,51.8,82,29.43,10.0,SSE,12.7,21.9,N/A,,Mostly Cloudy,150,2012-10-30 12:15:00
8:35 AM,57.2,51.8,82,29.43,9.0,Calm,Calm,-,0.01,,Overcast,0,2012-10-30 12:35:00
8:55 AM,57.2,51.8,82,29.44,10.0,SE,16.1,23.0,0.01,,Overcast,140,2012-10-30 12:55:00
9:15 AM,57.2,51.8,82,29.45,9.0,SE,13.8,26.5,N/A,,Overcast,140,2012-10-30 13:15:00
9:35 AM,57.2,51.8,82,29.47,7.0,SSE,13.8,23.0,0.03,,Mostly Cloudy,150,2012-10-30 13:35:00
9:55 AM,57.2,51.8,82,29.46,10.0,SE,11.5,18.4,0.04,,Mostly Cloudy,130,2012-10-30 13:55:00
10:15 AM,59.0,51.8,77,29.48,10.0,SSE,13.8,17.3,N/A,,Mostly Cloudy,150,2012-10-30 14:15:00
10:35 AM,57.2,51.8,82,29.48,10.0,SE,9.2,-,N/A,,Overcast,140,2012-10-30 14:35:00
10:55 AM,57.2,51.8,82,29.48,10.0,SSE,12.7,21.9,N/A,,Mostly Cloudy,150,2012-10-30 14:55:00
11:15 AM,60.8,53.6,77,29.48,10.0,SE,13.8,19.6,N/A,,Overcast,130,2012-10-30 15:15:00
11:35 AM,60.8,51.8,72,29.48,10.0,SE,11.5,26.5,N/A,,Mostly Cloudy,130,2012-10-30 15:35:00
11:55 AM,60.8,51.8,72,29.48,10.0,SSE,12.7,23.0,N/A,,Mostly Cloudy,150,2012-10-30 15:55:00
12:15 PM,60.8,51.8,72,29.48,10.0,SE,16.1,25.3,N/A,,Overcast,130,2012-10-30 16:15:00
12:35 PM,60.8,51.8,72,29.47,10.0,ESE,16.1,26.5,N/A,,Mostly Cloudy,120,2012-10-30 16:35:00
12:55 PM,60.8,51.8,72,29.48,10.0,SE,17.3,24.2,0.01,,Mostly Cloudy,130,2012-10-30 16:55:00
1:15 PM,60.8,51.8,72,29.48,10.0,SE,13.8,27.6,N/A,,Mostly Cloudy,140,2012-10-30 17:15:00
1:35 PM,62.6,51.8,68,29.47,10.0,SE,16.1,26.5,N/A,,Scattered Clouds,130,2012-10-30 17:35:00
1:55 PM,62.6,48.2,59,29.48,10.0,SSE,10.4,29.9,N/A,,Mostly Cloudy,150,2012-10-30 17:55:00
2:15 PM,64.4,48.2,56,29.48,10.0,SSE,15.0,20.7,N/A,,Overcast,150,2012-10-30 18:15:00
2:35 PM,64.4,48.2,56,29.48,10.0,SSE,15.0,27.6,N/A,,Mostly Cloudy,160,2012-10-30 18:35:00
2:55 PM,62.6,48.2,59,29.48,10.0,SE,17.3,23.0,N/A,,Mostly Cloudy,140,2012-10-30 18:55:00
3:15 PM,64.4,48.2,56,29.48,10.0,ESE,9.2,20.7,N/A,,Mostly Cloudy,120,2012-10-30 19:15:00
3:35 PM,62.6,46.4,55,29.48,10.0,SSE,12.7,20.7,N/A,,Scattered Clouds,150,2012-10-30 19:35:00
3:55 PM,64.4,46.4,52,29.49,10.0,SE,12.7,27.6,N/A,,Mostly Cloudy,140,2012-10-30 19:55:00
4:15 PM,62.6,46.4,55,29.47,10.0,SSE,18.4,25.3,N/A,,Scattered Clouds,160,2012-10-30 20:15:00
4:35 PM,62.6,48.2,59,29.48,10.0,ESE,16.1,26.5,N/A,,Mostly Cloudy,120,2012-10-30 20:35:00
4:55 PM,62.6,48.2,59,29.48,10.0,SE,11.5,18.4,N/A,,Mostly Cloudy,140,2012-10-30 20:55:00
5:15 PM,62.6,50.0,63,29.48,10.0,SE,13.8,19.6,N/A,,Mostly Cloudy,140,2012-10-30 21:15:00
5:35 PM,62.6,50.0,63,29.48,10.0,SE,15.0,24.2,N/A,,Scattered Clouds,130,2012-10-30 21:35:00
5:55 PM,60.8,50.0,68,29.49,10.0,SE,16.1,26.5,N/A,,Scattered Clouds,130,2012-10-30 21:55:00
6:15 PM,62.6,48.2,59,29.50,10.0,SSE,11.5,19.6,N/A,,Scattered Clouds,150,2012-10-30 22:15:00
6:35 PM,60.8,50.0,68,29.50,10.0,SE,13.8,-,N/A,,Mostly Cloudy,130,2012-10-30 22:35:00
6:55 PM,59.0,51.8,77,29.51,10.0,SE,13.8,20.7,N/A,,Overcast,140,2012-10-30 22:55:00
7:15 PM,59.0,51.8,77,29.51,10.0,SSE,11.5,18.4,N/A,,Mostly Cloudy,150,2012-10-30 23:15:00
7:35 PM,59.0,51.8,77,29.51,10.0,SE,17.3,-,N/A,,Mostly Cloudy,140,2012-10-30 23:35:00
7:55 PM,57.2,51.8,82,29.50,10.0,SE,13.8,19.6,N/A,,Overcast,140,2012-10-30 23:55:00
8:15 PM,57.2,53.6,88,29.49,10.0,ESE,10.4,-,0.01,,Overcast,120,2012-10-31 00:15:00
8:35 PM,57.2,51.8,82,29.49,10.0,SE,13.8,-,0.01,,Mostly Cloudy,130,2012-10-31 00:35:00
8:55 PM,55.4,51.8,88,29.50,10.0,SE,13.8,-,0.01,,Scattered Clouds,140,2012-10-31 00:55:00
9:15 PM,57.2,51.8,82,29.49,10.0,SE,16.1,-,N/A,,Mostly Cloudy,140,2012-10-31 01:15:00
9:35 PM,55.4,51.8,88,29.49,10.0,SSE,11.5,-,N/A,,Overcast,150,2012-10-31 01:35:00
9:55 PM,55.4,51.8,88,29.50,10.0,South,8.1,-,N/A,,Overcast,170,2012-10-31 01:55:00
10:15 PM,55.4,51.8,88,29.50,10.0,SSE,8.1,-,N/A,,Overcast,150,2012-10-31 02:15:00
10:35 PM,55.4,51.8,88,29.49,10.0,SE,5.8,-,0.01,,Overcast,140,2012-10-31 02:35:00
10:55 PM,55.4,51.8,88,29.49,10.0,ESE,9.2,-,0.01,,Mostly Cloudy,120,2012-10-31 02:55:00
11:15 PM,53.6,51.8,94,29.50,10.0,ESE,6.9,-,N/A,,Mostly Cloudy,120,2012-10-31 03:15:00
11:35 PM,53.6,50.0,88,29.50,10.0,SSE,9.2,-,N/A,,Mostly Cloudy,150,2012-10-31 03:35:00
11:55 PM,55.4,48.2,77,29.51,10.0,SE,12.7,-,N/A,,Mostly Cloudy,130,2012-10-31 03:55:00